Time;durP1;ratioP1;P1;durP2;ratioP2;P2;SDS_P1;SDS_P2;PMS_P1;PMS_P2;Temp;Humidity;BMP_temperature;BMP_pressure;BME280_temperature;BME280_humidity;BME280_pressure;Samples;Min_cycle;Max_cycle;Signal;HPM_P1;HPM_P2
2021/04/21 00:01:40;;;;;;;23.25;18.37;;;;;;;5.41;76.19;96269.11;1748869;80;21094;-77
2021/04/21 00:04:07;;;;;;;24.30;19.85;;;;;;;5.42;76.26;96270.24;1729254;80;21130;-78
2021/04/21 00:06:35;;;;;;;25.40;19.98;;;;;;;5.45;76.32;96265.74;1760627;80;21236;-78
2021/04/21 00:09:04;;;;;;;23.27;18.17;;;;;;;5.46;76.30;96269.94;1732459;80;21107;-78
2021/04/21 00:11:31;;;;;;;22.02;19.00;;;;;;;5.46;76.37;96267.36;1764925;80;21102;-77
2021/04/21 00:13:57;;;;;;;22.32;19.50;;;;;;;5.42;76.43;96266.86;1750250;80;21118;-76
2021/04/21 00:16:23;;;;;;;24.40;19.82;;;;;;;5.37;76.50;96264.75;1761309;80;21110;-76
2021/04/21 00:18:50;;;;;;;26.90;20.70;;;;;;;5.35;76.47;96263.26;1772999;80;21303;-77
2021/04/21 00:21:16;;;;;;;24.20;19.12;;;;;;;5.36;76.43;96260.52;1752980;80;21128;-76
2021/04/21 00:23:42;;;;;;;24.87;19.90;;;;;;;5.37;76.49;96253.64;1763664;80;21467;-76
2021/04/21 00:26:13;;;;;;;25.75;20.65;;;;;;;5.38;76.46;96248.81;1764400;80;21263;-77
2021/04/21 00:28:40;;;;;;;26.10;19.35;;;;;;;5.37;76.49;96248.00;1724834;80;22007;-77
2021/04/21 00:31:08;;;;;;;24.32;19.32;;;;;;;5.37;76.53;96245.91;1763517;80;21335;-77
2021/04/21 00:33:34;;;;;;;21.00;18.42;;;;;;;5.34;76.59;96237.16;1725004;80;21133;-76
2021/04/21 00:36:01;;;;;;;25.65;20.35;;;;;;;5.32;76.70;96232.65;1766624;80;21101;-76
2021/04/21 00:38:27;;;;;;;22.48;18.55;;;;;;;5.28;76.75;96225.71;1755739;80;21086;-77
2021/04/21 00:41:22;;;;;;;21.85;19.07;;;;;;;5.27;76.77;96227.16;1757066;80;21189;-77
2021/04/21 00:44:07;;;;;;;23.27;18.50;;;;;;;5.27;76.73;96227.97;1763173;80;21483;-77
2021/04/21 00:46:44;;;;;;;21.10;18.02;;;;;;;5.28;76.67;96232.16;1756686;80;21315;-77
2021/04/21 00:49:17;;;;;;;21.52;17.55;;;;;;;5.28;76.74;96224.91;1768479;80;21206;-77
2021/04/21 00:51:57;;;;;;;20.92;17.52;;;;;;;5.26;76.81;96230.22;1758182;80;21109;-77
2021/04/21 00:55:01;;;;;;;19.45;17.15;;;;;;;5.23;76.93;96232.30;1731641;80;21451;-77
2021/04/21 00:58:02;;;;;;;24.37;19.07;;;;;;;5.22;77.08;96234.06;1761203;80;21352;-77
2021/04/21 01:00:35;;;;;;;24.18;21.50;;;;;;;5.19;77.26;96228.37;1761627;80;21089;-77
2021/04/21 01:03:22;;;;;;;25.37;20.40;;;;;;;5.16;77.41;96224.34;1739724;80;21256;-77
2021/04/21 01:06:01;;;;;;;22.40;19.90;;;;;;;5.19;77.49;96228.37;1770415;80;21137;-77
2021/04/21 01:08:33;;;;;;;20.02;17.90;;;;;;;5.18;77.44;96223.71;1767124;80;21248;-77
2021/04/21 01:11:23;;;;;;;20.00;16.65;;;;;;;5.23;77.43;96218.93;1760320;80;21078;-77
2021/04/21 01:13:59;;;;;;;22.10;18.82;;;;;;;5.26;77.46;96214.76;1752631;80;21081;-77
2021/04/21 01:16:29;;;;;;;21.52;17.20;;;;;;;5.29;77.62;96217.02;1753142;80;21091;-77
2021/04/21 01:18:57;;;;;;;17.87;15.98;;;;;;;5.30;77.77;96212.67;1754184;81;21107;-77
2021/04/21 01:21:37;;;;;;;23.22;18.75;;;;;;;5.30;77.84;96213.97;1750132;81;21122;-77
2021/04/21 01:24:24;;;;;;;19.95;16.50;;;;;;;5.29;77.81;96218.80;1755792;81;21302;-79
2021/04/21 01:27:09;;;;;;;22.37;17.55;;;;;;;5.31;77.73;96216.87;1758004;81;21123;-77
2021/04/21 01:29:39;;;;;;;20.95;17.42;;;;;;;5.32;77.58;96221.86;1743424;81;21107;-78
2021/04/21 01:32:15;;;;;;;21.02;17.67;;;;;;;5.33;77.49;96226.05;1739149;81;21440;-78
2021/04/21 01:34:42;;;;;;;18.52;16.50;;;;;;;5.37;77.48;96229.16;1737407;81;21106;-78
2021/04/21 01:37:12;;;;;;;20.37;16.40;;;;;;;5.38;77.43;96230.29;1751872;81;21119;-78
2021/04/21 01:39:43;;;;;;;20.30;17.92;;;;;;;5.41;77.41;96231.75;1755011;81;21126;-78
2021/04/21 01:42:10;;;;;;;20.27;16.32;;;;;;;5.42;77.27;96235.45;1743133;81;21093;-78
2021/04/21 01:44:40;;;;;;;22.27;18.25;;;;;;;5.39;77.27;96240.11;1729730;81;21136;-78
2021/04/21 01:47:04;;;;;;;23.40;18.70;;;;;;;5.33;77.17;96237.65;1724271;81;21109;-78
2021/04/21 01:49:45;;;;;;;19.80;16.57;;;;;;;5.31;77.06;96247.30;1706538;81;21099;-78
2021/04/21 01:52:42;;;;;;;19.32;17.27;;;;;;;5.29;76.99;96246.65;1732144;81;21400;-78
2021/04/21 01:55:31;;;;;;;19.50;17.27;;;;;;;5.24;76.87;96255.80;1752598;81;21326;-78
2021/04/21 01:58:26;;;;;;;20.48;18.15;;;;;;;5.21;77.13;96252.25;1736813;81;21138;-78
2021/04/21 02:01:00;;;;;;;17.80;15.95;;;;;;;5.16;77.45;96250.10;1736532;81;21167;-77
2021/04/21 02:03:40;;;;;;;22.50;18.65;;;;;;;5.12;77.80;96251.37;1750752;81;21194;-76
2021/04/21 02:06:35;;;;;;;23.70;18.67;;;;;;;5.07;77.81;96244.59;1740887;81;21267;-77
2021/04/21 02:09:24;;;;;;;25.90;19.98;;;;;;;5.12;77.90;96247.51;1733629;81;21440;-77
2021/04/21 02:11:55;;;;;;;29.82;20.80;;;;;;;5.16;77.85;96249.30;1748789;81;21270;-77
2021/04/21 02:14:44;;;;;;;21.42;18.75;;;;;;;5.21;77.95;96247.91;1687077;84;21384;-77
2021/04/21 02:17:37;;;;;;;21.82;19.45;;;;;;;5.23;78.00;96244.69;1706521;83;21134;-77
2021/04/21 02:20:31;;;;;;;22.50;18.77;;;;;;;5.25;77.91;96247.11;1704619;83;21240;-76
2021/04/21 02:23:26;;;;;;;23.35;20.62;;;;;;;5.25;78.15;96248.41;1710203;83;21182;-77
2021/04/21 02:26:03;;;;;;;22.77;19.37;;;;;;;5.23;78.24;96247.27;1702876;83;21114;-77
2021/04/21 02:29:00;;;;;;;24.27;20.27;;;;;;;5.25;78.41;96245.83;1654972;83;21162;-76
2021/04/21 02:31:41;;;;;;;23.60;19.37;;;;;;;5.27;78.30;96245.19;1704342;83;21109;-77
2021/04/21 02:34:33;;;;;;;19.32;17.20;;;;;;;5.30;78.33;96243.11;1690896;83;21333;-77
2021/04/21 02:37:08;;;;;;;;;;;;;;;5.32;78.41;96233.94;1715532;83;21452;-77
2021/04/21 02:39:45;;;;;;;18.87;16.40;;;;;;;5.38;78.59;96233.34;1667101;83;20244;-77
2021/04/21 02:42:38;;;;;;;20.00;17.62;;;;;;;5.40;78.60;96234.00;1711190;83;21097;-77
2021/04/21 02:45:49;;;;;;;21.73;18.30;;;;;;;5.41;78.62;96234.33;1690090;84;21141;-77
2021/04/21 02:48:20;;;;;;;20.32;17.67;;;;;;;5.44;78.65;96230.14;1722107;83;21142;-77
2021/04/21 02:50:57;;;;;;;18.85;16.60;;;;;;;5.49;78.57;96229.20;1695454;83;21256;-77
2021/04/21 02:53:33;;;;;;;20.45;16.90;;;;;;;5.55;78.70;96227.80;1670711;84;21647;-77
2021/04/21 02:56:22;;;;;;;23.40;18.35;;;;;;;5.60;78.63;96230.23;1710909;83;21166;-77
2021/04/21 02:59:22;;;;;;;19.00;16.65;;;;;;;5.65;78.70;96231.85;1695544;84;21546;-77
2021/04/21 03:02:12;;;;;;;20.25;18.02;;;;;;;5.69;78.65;96225.90;1707919;83;21090;-76
2021/04/21 03:04:52;;;;;;;20.75;17.87;;;;;;;5.70;78.65;96225.77;1707820;83;21090;-77
2021/04/21 03:07:23;;;;;;;21.20;17.57;;;;;;;5.73;78.62;96228.52;1690113;83;21135;-76
2021/04/21 03:10:08;;;;;;;21.25;18.23;;;;;;;5.76;78.49;96228.68;1701068;83;21363;-76
2021/04/21 03:12:37;;;;;;;20.68;17.35;;;;;;;5.80;78.50;96228.69;1720968;82;21130;-76
2021/04/21 03:15:09;;;;;;;23.30;19.00;;;;;;;5.81;78.43;96222.08;1713685;82;21121;-76
2021/04/21 03:17:35;;;;;;;21.80;18.85;;;;;;;5.88;78.48;96217.94;1718042;83;21268;-76
2021/04/21 03:20:15;;;;;;;21.55;18.55;;;;;;;5.90;78.55;96216.03;1751730;81;21138;-76
2021/04/21 03:22:43;;;;;;;24.65;20.62;;;;;;;5.91;78.55;96216.36;1760037;81;22139;-79
2021/04/21 03:25:17;;;;;;;22.27;19.45;;;;;;;5.93;78.70;96223.45;1735483;81;21344;-79
2021/04/21 03:27:47;;;;;;;23.62;19.70;;;;;;;5.96;78.72;96216.69;1723690;81;21095;-79
2021/04/21 03:30:15;;;;;;;22.67;18.57;;;;;;;6.02;78.74;96223.02;1746714;81;21364;-79
2021/04/21 03:32:50;;;;;;;21.00;18.10;;;;;;;6.09;78.64;96222.69;1746281;81;21241;-79
2021/04/21 03:35:16;;;;;;;21.02;17.73;;;;;;;6.15;78.62;96220.77;1744142;81;21126;-79
2021/04/21 03:38:07;;;;;;;19.37;17.37;;;;;;;6.19;78.61;96222.56;1743172;81;22429;-79
2021/04/21 03:40:35;;;;;;;20.55;18.35;;;;;;;6.23;78.78;96220.80;1732249;81;21271;-79
2021/04/21 03:43:01;;;;;;;18.87;16.85;;;;;;;6.24;78.62;96219.02;1738512;81;21124;-79
2021/04/21 03:45:28;;;;;;;19.65;16.60;;;;;;;6.27;78.72;96225.95;1743726;80;21135;-79
2021/04/21 03:47:54;;;;;;;19.30;16.67;;;;;;;6.31;78.59;96225.15;1747300;81;21615;-79
2021/04/21 03:50:20;;;;;;;18.80;16.87;;;;;;;6.36;78.57;96229.38;1745618;81;21079;-77
2021/04/21 03:52:49;;;;;;;19.17;16.85;;;;;;;6.40;78.45;96228.56;1752665;81;21132;-77
2021/04/21 03:55:15;;;;;;;18.65;15.65;;;;;;;6.41;78.42;96226.30;1745360;81;21087;-77
2021/04/21 03:57:46;;;;;;;18.48;16.35;;;;;;;6.40;78.43;96226.79;1745825;81;21123;-77
2021/04/21 04:00:16;;;;;;;18.75;16.60;;;;;;;6.42;78.50;96222.76;1758038;81;21091;-77
2021/04/21 04:02:52;;;;;;;20.32;16.35;;;;;;;6.41;78.56;96228.41;1752127;81;21122;-77
2021/04/21 04:05:25;;;;;;;20.45;15.88;;;;;;;6.41;78.47;96224.53;1752212;81;21443;-77
2021/04/21 04:07:51;;;;;;;17.20;15.45;;;;;;;6.48;78.42;96228.08;1746597;81;21602;-79
2021/04/21 04:10:17;;;;;;;15.65;14.10;;;;;;;6.54;78.42;96230.03;1740433;80;21070;-79
2021/04/21 04:12:44;;;;;;;15.60;13.95;;;;;;;6.60;78.47;96226.80;1747256;81;21118;-78
2021/04/21 04:15:13;;;;;;;18.23;15.20;;;;;;;6.64;78.40;96225.98;1726721;81;21349;-78
2021/04/21 04:17:44;;;;;;;20.80;16.15;;;;;;;6.67;78.54;96223.56;1756254;80;21107;-78
2021/04/21 04:20:15;;;;;;;17.35;15.40;;;;;;;6.69;78.64;96222.46;1758848;80;21133;-78
2021/04/21 04:22:46;;;;;;;17.43;15.17;;;;;;;6.70;78.41;96220.69;1760864;80;21161;-78
2021/04/21 04:25:13;;;;;;;15.75;14.15;;;;;;;6.74;78.27;96221.97;1753759;80;21103;-78
2021/04/21 04:27:39;;;;;;;18.15;15.30;;;;;;;6.80;78.25;96225.99;1760493;80;21086;-78
2021/04/21 04:30:07;;;;;;;16.95;15.18;;;;;;;6.83;78.17;96228.28;1748851;80;21089;-79
2021/04/21 04:32:33;;;;;;;17.42;14.63;;;;;;;6.86;78.20;96222.78;1730616;80;21132;-78
2021/04/21 04:34:59;;;;;;;17.35;15.50;;;;;;;6.89;78.12;96226.81;1754438;80;21139;-78
2021/04/21 04:37:27;;;;;;;17.73;15.80;;;;;;;6.90;78.10;96227.13;1763883;80;21098;-78
2021/04/21 04:39:54;;;;;;;17.32;14.50;;;;;;;6.94;77.96;96232.29;1757820;80;22012;-78
2021/04/21 04:42:20;;;;;;;16.42;13.83;;;;;;;6.97;78.00;96228.08;1755954;80;21416;-78
2021/04/21 04:44:51;;;;;;;17.57;14.55;;;;;;;7.01;78.02;96228.10;1718508;80;21371;-79
2021/04/21 04:47:27;;;;;;;18.15;15.25;;;;;;;7.04;78.09;96229.06;1757052;80;21130;-79
2021/04/21 04:50:15;;;;;;;19.35;15.08;;;;;;;7.06;78.28;96233.58;1761929;80;21126;-79
2021/04/21 04:52:43;;;;;;;17.15;15.32;;;;;;;7.07;78.27;96231.31;1757154;80;21316;-79
2021/04/21 04:55:12;;;;;;;15.85;14.15;;;;;;;7.09;78.14;96231.14;1750714;80;21114;-79
2021/04/21 04:57:41;;;;;;;17.60;14.43;;;;;;;7.14;78.13;96234.03;1758438;80;21229;-79
2021/04/21 05:00:19;;;;;;;16.30;14.47;;;;;;;7.20;78.17;96236.79;1749526;80;21181;-79
2021/04/21 05:02:53;;;;;;;16.37;14.50;;;;;;;7.22;78.18;96229.68;1746344;80;21136;-79
2021/04/21 05:05:20;;;;;;;16.02;14.30;;;;;;;7.29;78.19;96234.18;1750883;80;21239;-79
2021/04/21 05:08:11;;;;;;;16.25;14.53;;;;;;;7.29;78.27;96236.77;1756213;80;21146;-79
2021/04/21 05:10:43;;;;;;;18.52;15.60;;;;;;;7.28;78.10;96235.15;1721101;82;22319;-77
2021/04/21 05:13:13;;;;;;;16.90;14.93;;;;;;;7.28;78.18;96240.32;1736373;82;21118;-79
2021/04/21 05:15:54;;;;;;;16.17;14.47;;;;;;;7.30;78.24;96246.13;1739660;82;21127;-76
2021/04/21 05:18:35;;;;;;;16.32;13.85;;;;;;;7.36;78.52;96248.88;1734729;80;21329;-77
2021/04/21 05:21:45;;;;;;;15.33;13.67;;;;;;;7.42;78.36;96247.41;1734991;80;21352;-79
2021/04/21 05:24:35;;;;;;;24.95;18.73;;;;;;;7.46;78.28;96239.62;1725469;80;21236;-79
2021/04/21 05:27:57;;;;;;;20.02;16.35;;;;;;;7.51;78.26;96242.06;1722307;80;21225;-79
2021/04/21 05:30:58;;;;;;;18.98;15.58;;;;;;;7.57;78.37;96244.45;1729787;82;21225;-79
2021/04/21 05:34:03;;;;;;;19.45;16.23;;;;;;;7.64;78.54;96247.98;1724264;80;21102;-78
2021/04/21 05:37:15;;;;;;;19.35;17.15;;;;;;;7.72;78.74;96246.67;1665335;82;21131;-78
2021/04/21 05:39:58;;;;;;;19.67;17.53;;;;;;;7.83;78.03;96246.32;1731073;82;21118;-78
2021/04/21 05:42:59;;;;;;;20.85;17.62;;;;;;;7.98;78.09;96247.72;1741745;80;21317;-76
2021/04/21 05:45:53;;;;;;;20.00;17.37;;;;;;;8.08;77.82;96252.18;1722632;80;21301;-76
2021/04/21 05:49:03;;;;;;;26.85;22.85;;;;;;;8.17;77.52;96241.80;1731171;80;21266;-76
2021/04/21 05:52:20;;;;;;;20.27;18.15;;;;;;;8.20;77.17;96251.33;1682860;82;21138;-78
2021/04/21 05:55:35;;;;;;;19.67;17.48;;;;;;;8.24;77.43;96252.59;1690491;82;21252;-77
2021/04/21 05:58:53;;;;;;;17.00;14.63;;;;;;;8.28;77.27;96252.56;1703074;83;21118;-77
2021/04/21 06:01:26;;;;;;;15.78;14.10;;;;;;;8.36;77.35;96253.05;1685223;84;21145;-78
2021/04/21 06:03:57;;;;;;;26.50;23.60;;;;;;;8.45;77.02;96254.59;1726911;81;21345;-78
2021/04/21 06:06:24;;;;;;;17.32;15.40;;;;;;;8.56;77.54;96256.80;1729894;81;21237;-77
2021/04/21 06:08:50;;;;;;;20.90;15.28;;;;;;;8.60;77.51;96254.17;1741998;81;21095;-79
2021/04/21 06:11:25;;;;;;;17.52;15.65;;;;;;;8.65;77.81;96256.27;1729022;81;21333;-78
2021/04/21 06:13:55;;;;;;;14.83;12.47;;;;;;;8.76;76.56;96255.05;1729759;81;21105;-77
2021/04/21 06:16:22;;;;;;;16.70;14.55;;;;;;;8.92;76.43;96257.51;1713147;81;21290;-78
2021/04/21 06:18:58;;;;;;;19.00;15.93;;;;;;;9.08;75.97;96257.87;1743112;80;21070;-77
2021/04/21 06:21:29;;;;;;;17.77;15.88;;;;;;;9.22;75.20;96263.09;1704398;82;21245;-78
2021/04/21 06:23:58;;;;;;;19.73;17.62;;;;;;;9.37;75.08;96259.72;1712279;80;21149;-77
2021/04/21 06:26:29;;;;;;;16.40;14.45;;;;;;;9.54;75.16;96257.28;1738886;80;21102;-79
2021/04/21 06:29:07;;;;;;;18.35;16.45;;;;;;;9.68;74.46;96257.78;1744907;80;21146;-79
2021/04/21 06:31:40;;;;;;;21.12;17.23;;;;;;;9.81;73.77;96255.86;1737446;80;21356;-77
2021/04/21 06:37:09;;;;;;;21.48;18.92;;;;;;;9.92;73.56;96254.92;1740031;80;21043;-77
2021/04/21 06:39:35;;;;;;;22.60;18.05;;;;;;;9.92;74.02;96259.28;1732695;80;21161;-77
2021/04/21 06:42:03;;;;;;;25.25;19.98;;;;;;;9.88;74.02;96255.44;1726774;82;21256;-80
2021/04/21 06:44:46;;;;;;;20.92;18.55;;;;;;;9.85;73.82;96257.11;1727238;80;21174;-77
2021/04/21 06:47:22;;;;;;;22.98;18.48;;;;;;;9.85;74.16;96259.20;1728977;80;21232;-77
2021/04/21 06:50:06;;;;;;;23.10;17.23;;;;;;;9.88;74.13;96253.66;1737841;80;21063;-79
2021/04/21 06:52:36;;;;;;;22.00;17.10;;;;;;;9.93;73.57;96252.64;1727337;80;21284;-77
2021/04/21 06:55:06;;;;;;;18.42;16.52;;;;;;;9.97;73.23;96246.59;1735156;80;21104;-77
2021/04/21 06:57:32;;;;;;;19.12;16.82;;;;;;;10.02;73.31;96246.84;1740712;80;21063;-77
2021/04/21 07:00:12;;;;;;;19.48;17.42;;;;;;;10.07;72.85;96254.08;1736713;80;21109;-77
2021/04/21 07:02:41;;;;;;;19.12;16.57;;;;;;;10.13;72.37;96250.77;1727379;80;21114;-79
2021/04/21 07:05:34;;;;;;;21.77;19.48;;;;;;;10.31;72.75;96243.91;1742260;80;21106;-77
2021/04/21 07:08:13;;;;;;;21.17;17.85;;;;;;;10.62;72.73;96250.94;1730580;80;21090;-77
2021/04/21 07:10:50;;;;;;;20.12;18.02;;;;;;;10.99;71.54;96255.08;1737024;80;21401;-79
2021/04/21 07:13:26;;;;;;;24.77;20.95;;;;;;;11.14;71.85;96255.00;1737326;80;21119;-77
2021/04/21 07:15:56;;;;;;;23.02;20.08;;;;;;;11.26;71.62;96251.41;1734292;80;21098;-79
2021/04/21 07:18:29;;;;;;;20.52;18.05;;;;;;;11.30;71.26;96255.22;1736614;80;21328;-77
2021/04/21 07:20:56;;;;;;;23.22;20.72;;;;;;;11.33;70.81;96262.14;1725118;82;21749;-79
2021/04/21 07:23:24;;;;;;;26.60;23.30;;;;;;;11.35;71.03;96265.86;1741309;80;21126;-79
2021/04/21 07:25:51;;;;;;;31.68;26.33;;;;;;;11.38;70.70;96262.38;1730803;80;21110;-78
2021/04/21 07:28:18;;;;;;;28.50;25.48;;;;;;;11.45;70.94;96266.34;1750678;82;21097;-78
2021/04/21 07:30:44;;;;;;;32.70;26.82;;;;;;;11.57;70.58;96266.63;1742054;80;21098;-77
2021/04/21 07:33:10;;;;;;;35.20;27.62;;;;;;;11.71;70.52;96268.30;1746441;80;21209;-79
2021/04/21 07:35:36;;;;;;;23.80;18.62;;;;;;;11.88;70.80;96268.35;1736956;80;21264;-77
2021/04/21 07:38:17;;;;;;;20.92;18.23;;;;;;;11.98;69.40;96269.28;1758370;80;21256;-79
2021/04/21 07:40:43;;;;;;;16.27;14.65;;;;;;;11.98;68.40;96270.09;1724881;80;21102;-79
2021/04/21 07:43:16;;;;;;;15.95;14.25;;;;;;;11.96;67.75;96264.27;1720774;80;21122;-79
2021/04/21 07:45:51;;;;;;;16.02;13.98;;;;;;;11.96;67.46;96266.08;1706577;82;22045;-78
2021/04/21 07:48:38;;;;;;;16.20;14.00;;;;;;;11.96;66.85;96268.17;1653955;85;21129;-79
2021/04/21 07:51:21;;;;;;;16.48;14.78;;;;;;;11.97;66.97;96270.28;1723989;82;21313;-79
2021/04/21 07:53:55;;;;;;;14.78;13.18;;;;;;;11.99;67.05;96271.69;1722371;82;21134;-79
2021/04/21 07:56:22;;;;;;;15.50;13.60;;;;;;;11.97;66.08;96274.19;1707341;82;21150;-79
2021/04/21 07:58:50;;;;;;;16.35;14.55;;;;;;;11.87;65.60;96270.62;1673792;83;21126;-79
2021/04/21 08:01:16;;;;;;;22.02;17.00;;;;;;;11.81;65.52;96274.50;1710914;82;21493;-79
2021/04/21 08:03:48;;;;;;;16.77;13.85;;;;;;;11.75;65.84;96276.05;1724343;82;21325;-79
2021/04/21 08:06:14;;;;;;;25.55;18.37;;;;;;;11.72;66.01;96281.64;1720441;82;21245;-79
2021/04/21 08:08:40;;;;;;;31.65;27.10;;;;;;;11.72;66.01;96281.64;1724032;82;21142;-79
2021/04/21 08:11:06;;;;;;;35.40;29.05;;;;;;;11.74;65.79;96282.25;1717217;82;21106;-79
2021/04/21 08:13:41;;;;;;;19.77;17.07;;;;;;;11.76;65.50;96278.95;1658435;85;21149;-79
2021/04/21 08:16:25;;;;;;;53.10;39.18;;;;;;;11.75;64.78;96280.45;1710454;82;21125;-79
2021/04/21 08:18:53;;;;;;;25.62;21.82;;;;;;;11.80;64.89;96280.20;1718755;82;21122;-77
2021/04/21 08:21:47;;;;;;;17.07;14.33;;;;;;;11.92;65.15;96278.68;1721541;82;21075;-79
2021/04/21 08:24:17;;;;;;;14.07;12.07;;;;;;;11.98;64.49;96275.80;1652761;82;21343;-78
2021/04/21 08:26:46;;;;;;;12.78;11.22;;;;;;;12.08;64.02;96280.66;1690416;83;21135;-79
2021/04/21 08:29:13;;;;;;;14.58;11.53;;;;;;;12.17;64.64;96276.38;1716911;82;21071;-77
2021/04/21 08:31:50;;;;;;;12.00;10.80;;;;;;;12.31;64.71;96275.94;1710959;82;21220;-78
2021/04/21 08:34:15;;;;;;;12.10;10.58;;;;;;;12.47;63.51;96270.39;1687056;82;21412;-78
2021/04/21 08:36:42;;;;;;;13.18;11.12;;;;;;;12.52;63.12;96269.79;1722432;82;21339;-77
2021/04/21 08:39:08;;;;;;;11.78;10.55;;;;;;;12.53;62.88;96273.53;1723817;82;21091;-79
2021/04/21 08:41:39;;;;;;;11.45;10.25;;;;;;;12.49;61.51;96280.61;1721542;82;21114;-78
2021/04/21 08:44:06;;;;;;;14.43;12.65;;;;;;;12.51;62.80;96278.11;1724141;82;21137;-79
2021/04/21 08:46:32;;;;;;;15.05;12.60;;;;;;;12.67;62.20;96274.34;1720119;82;21098;-79
2021/04/21 08:48:59;;;;;;;11.80;10.60;;;;;;;12.86;62.83;96276.71;1722892;82;21075;-78
2021/04/21 08:51:27;;;;;;;13.15;11.57;;;;;;;13.12;61.84;96278.03;1714281;82;21244;-77
2021/04/21 08:53:56;;;;;;;15.90;10.82;;;;;;;13.38;62.27;96278.58;1701306;82;21102;-77
2021/04/21 08:56:22;;;;;;;9.00;8.10;;;;;;;13.46;61.80;96274.95;1651846;85;21172;-78
2021/04/21 08:58:50;;;;;;;10.90;9.70;;;;;;;13.37;59.49;96271.75;1700081;82;21112;-79
2021/04/21 09:01:17;;;;;;;13.93;11.50;;;;;;;13.26;60.46;96276.77;1707587;82;21153;-79
2021/04/21 09:03:44;;;;;;;12.55;11.25;;;;;;;13.19;60.31;96270.25;1704732;82;21075;-79
2021/04/21 09:06:14;;;;;;;13.32;11.08;;;;;;;13.15;60.85;96276.31;1707131;82;21130;-78
2021/04/21 09:08:40;;;;;;;15.03;12.15;;;;;;;13.24;60.70;96276.97;1706867;82;21138;-80
2021/04/21 09:11:06;;;;;;;13.22;11.93;;;;;;;13.32;60.41;96276.75;1726980;82;21066;-80
2021/04/21 09:13:32;;;;;;;12.78;11.45;;;;;;;13.48;61.32;96276.84;1706744;82;21408;-78
2021/04/21 09:15:59;;;;;;;11.83;10.63;;;;;;;13.61;61.12;96272.92;1721353;82;21094;-80
2021/04/21 09:18:37;;;;;;;13.20;10.95;;;;;;;13.79;60.50;96272.29;1712031;82;21106;-86
2021/04/21 09:21:06;;;;;;;9.93;8.85;;;;;;;13.95;60.10;96267.13;1703784;82;21157;-77
2021/04/21 09:23:43;;;;;;;9.35;8.20;;;;;;;14.10;59.63;96269.00;1708305;82;21354;-79
2021/04/21 09:26:20;;;;;;;9.45;8.55;;;;;;;14.23;58.97;96261.63;1715803;82;21523;-78
2021/04/21 09:28:51;;;;;;;11.85;9.48;;;;;;;14.36;58.80;96266.30;1713790;82;21113;-80
2021/04/21 09:31:27;;;;;;;10.38;9.25;;;;;;;14.41;58.51;96266.46;1704396;82;22379;-78
2021/04/21 09:34:16;;;;;;;11.18;9.63;;;;;;;14.53;57.48;96268.46;1691465;82;21426;-78
2021/04/21 09:36:47;;;;;;;11.95;10.60;;;;;;;14.62;57.40;96258.84;1712077;82;21214;-78
2021/04/21 09:39:24;;;;;;;9.90;8.68;;;;;;;14.69;57.99;96263.54;1721188;82;21098;-77
2021/04/21 09:42:01;;;;;;;9.20;8.20;;;;;;;14.87;56.17;96262.02;1708117;82;21153;-80
2021/04/21 09:44:31;;;;;;;12.35;9.45;;;;;;;14.97;56.83;96259.76;1697444;83;21264;-80
2021/04/21 09:46:59;;;;;;;10.58;9.38;;;;;;;14.93;56.78;96261.17;1724040;82;21079;-78
2021/04/21 09:49:33;;;;;;;12.73;9.88;;;;;;;14.94;53.03;96257.03;1725354;82;21122;-78
2021/04/21 09:52:03;;;;;;;10.18;9.15;;;;;;;14.90;55.07;96262.40;1720276;82;21267;-79
2021/04/21 09:54:32;;;;;;;10.80;9.03;;;;;;;14.92;54.92;96259.06;1695233;82;21372;-79
2021/04/21 09:57:09;;;;;;;11.63;9.70;;;;;;;14.96;55.37;96260.23;1718318;82;21102;-78
2021/04/21 10:00:02;;;;;;;13.60;12.30;;;;;;;14.98;55.05;96255.62;1818832;76;28373;-78
2021/04/21 10:02:39;;;;;;;13.22;9.90;;;;;;;14.94;53.99;96258.84;1844395;77;21208;-80
2021/04/21 10:05:26;;;;;;;11.48;10.32;;;;;;;14.86;55.63;96256.50;1829966;77;21458;-78
2021/04/21 10:08:21;;;;;;;48.23;27.73;;;;;;;14.73;55.20;96250.04;1838600;77;21220;-81
2021/04/21 10:11:02;;;;;;;16.82;15.18;;;;;;;14.77;56.34;96251.22;1851891;77;21089;-78
2021/04/21 10:13:46;;;;;;;14.67;13.13;;;;;;;14.85;55.44;96249.67;1860126;77;21090;-78
2021/04/21 10:16:16;;;;;;;12.18;11.03;;;;;;;14.80;55.44;96242.43;1845723;77;21126;-80
2021/04/21 10:18:43;;;;;;;11.95;10.85;;;;;;;14.81;54.93;96252.42;1841110;77;21313;-78
2021/04/21 10:21:13;;;;;;;12.15;10.70;;;;;;;14.81;54.98;96247.98;1838954;77;22018;-80
2021/04/21 10:23:40;;;;;;;12.07;10.88;;;;;;;14.84;55.99;96238.91;1846384;77;21633;-78
2021/04/21 10:26:08;;;;;;;12.35;10.95;;;;;;;14.88;55.49;96239.58;1844304;77;21112;-79
2021/04/21 10:28:37;;;;;;;11.22;9.93;;;;;;;14.89;55.46;96238.56;1845544;77;21109;-79
2021/04/21 10:31:13;;;;;;;12.30;10.25;;;;;;;14.97;55.72;96240.94;1851371;77;21102;-80
2021/04/21 10:33:39;;;;;;;12.28;10.93;;;;;;;14.99;55.51;96234.18;1845307;77;21086;-80
2021/04/21 10:36:09;;;;;;;14.00;11.57;;;;;;;15.10;56.04;96237.91;1841689;76;21105;-78
2021/04/21 10:38:37;;;;;;;12.88;11.55;;;;;;;15.16;55.94;96228.71;1830750;76;21223;-78
2021/04/21 10:41:34;;;;;;;12.78;11.45;;;;;;;15.14;55.35;96232.05;1835541;77;21397;-79
2021/04/21 10:44:18;;;;;;;12.15;10.78;;;;;;;15.06;55.27;96227.58;1850849;77;21113;-78
2021/04/21 10:47:03;;;;;;;12.25;10.72;;;;;;;15.01;55.56;96233.45;1832594;77;21058;-78
2021/04/21 10:49:54;;;;;;;11.80;10.60;;;;;;;14.99;55.51;96221.90;1850938;77;21112;-78
2021/04/21 10:52:32;;;;;;;10.70;9.30;;;;;;;15.05;54.72;96215.51;1841196;77;21098;-78
2021/04/21 10:55:03;;;;;;;9.65;8.43;;;;;;;15.17;54.64;96213.30;1844082;77;21124;-78
2021/04/21 10:57:37;;;;;;;12.03;10.75;;;;;;;15.12;52.64;96203.96;1842603;77;21126;-80
2021/04/21 11:00:17;;;;;;;14.70;10.65;;;;;;;15.23;55.07;96207.20;1844307;76;21062;-78
2021/04/21 11:03:05;;;;;;;10.23;9.25;;;;;;;15.35;54.78;96202.06;1845831;76;21130;-78
2021/04/21 11:05:43;;;;;;;11.22;9.15;;;;;;;15.25;54.39;96201.23;1847406;77;21116;-78
2021/04/21 11:08:22;;;;;;;11.73;9.68;;;;;;;15.13;54.42;96199.53;1843072;77;21724;-78
2021/04/21 11:11:00;;;;;;;9.90;8.75;;;;;;;14.98;53.63;96203.30;1843539;77;21082;-78
2021/04/21 11:13:37;;;;;;;12.05;9.78;;;;;;;14.87;54.10;96196.63;1845375;77;21113;-80
2021/04/21 11:16:08;;;;;;;11.70;10.53;;;;;;;14.87;54.15;96197.94;1844922;76;21564;-79
2021/04/21 11:18:39;;;;;;;18.62;14.98;;;;;;;14.79;54.29;96198.19;1844602;77;21275;-79
2021/04/21 11:21:10;;;;;;;10.85;9.73;;;;;;;14.67;54.35;96199.39;1846735;77;21475;-79
2021/04/21 11:24:06;;;;;;;11.97;10.78;;;;;;;14.57;53.99;96195.13;1846095;77;21097;-80
2021/04/21 11:26:43;;;;;;;11.05;9.85;;;;;;;14.48;54.64;96200.30;1848936;77;21125;-79
2021/04/21 11:29:15;;;;;;;9.60;8.38;;;;;;;14.46;54.39;96200.50;1844277;77;21109;-78
2021/04/21 11:31:48;;;;;;;8.13;7.03;;;;;;;14.66;55.30;96203.02;1846436;77;21343;-78
2021/04/21 11:34:32;;;;;;;7.15;6.33;;;;;;;14.86;55.45;96201.57;1845683;76;21113;-79
2021/04/21 11:37:09;;;;;;;6.97;5.95;;;;;;;15.06;53.23;96201.41;1844381;77;21089;-79
2021/04/21 11:42:41;;;;;;;9.63;8.13;;;;;;;14.96;51.95;96203.19;1790909;78;22895;-80
2021/04/21 11:45:24;;;;;;;6.28;5.67;;;;;;;14.96;52.93;96204.49;1769212;80;21142;-80
2021/04/21 11:48:05;;;;;;;7.10;6.08;;;;;;;14.80;51.42;96213.66;1772355;80;21117;-79
2021/04/21 11:50:39;;;;;;;5.45;4.75;;;;;;;14.49;50.57;96218.91;1770854;80;21261;-78
2021/04/21 11:53:14;;;;;;;;;;;;;;;14.12;51.34;96218.64;1773211;80;21092;-78
2021/04/21 11:55:57;;;;;;;7.67;5.72;;;;;;;13.92;52.90;96220.03;1769410;80;20167;-79
2021/04/21 11:58:40;;;;;;;6.17;5.58;;;;;;;13.79;53.94;96213.53;1735629;81;21171;-78
2021/04/21 12:01:10;;;;;;;5.83;5.33;;;;;;;13.82;53.60;96210.50;1713882;81;21100;-78
2021/04/21 12:03:44;;;;;;;5.97;5.37;;;;;;;13.95;52.92;96208.36;1708675;82;21403;-78
2021/04/21 12:06:17;;;;;;;5.35;4.55;;;;;;;14.17;53.72;96203.16;1709797;82;21190;-77
2021/04/21 12:08:50;;;;;;;4.60;4.20;;;;;;;14.32;52.66;96211.53;1717349;82;21168;-80
2021/04/21 12:11:24;;;;;;;4.72;4.33;;;;;;;14.25;51.59;96206.83;1715891;82;21153;-79